sensor_id;sensor_type;location;lat;lon;timestamp;pressure;altitude;pressure_sealevel;temperature;humidity
46379;BME280;32084;42.254;22.744;2024-03-22T00:00:34;95169.28;;;7.03;58.09
46379;BME280;32084;42.254;22.744;2024-03-22T00:03:00;95172.19;;;6.80;58.97
46379;BME280;32084;42.254;22.744;2024-03-22T00:05:26;95168.22;;;6.45;59.23
46379;BME280;32084;42.254;22.744;2024-03-22T00:07:52;95169.09;;;6.15;59.52
46379;BME280;32084;42.254;22.744;2024-03-22T00:10:18;95168.88;;;6.28;59.24
46379;BME280;32084;42.254;22.744;2024-03-22T00:12:44;95176.47;;;6.52;59.24
46379;BME280;32084;42.254;22.744;2024-03-22T00:15:10;95167.56;;;6.63;59.06
46379;BME280;32084;42.254;22.744;2024-03-22T00:17:36;95165.91;;;6.81;58.90
46379;BME280;32084;42.254;22.744;2024-03-22T00:20:02;95166.38;;;6.36;60.61
46379;BME280;32084;42.254;22.744;2024-03-22T00:22:28;95163.09;;;6.23;59.48
46379;BME280;32084;42.254;22.744;2024-03-22T00:24:54;95163.88;;;6.54;58.27
46379;BME280;32084;42.254;22.744;2024-03-22T00:27:20;95160.97;;;6.67;58.40
46379;BME280;32084;42.254;22.744;2024-03-22T00:29:46;95158.47;;;6.65;58.61
46379;BME280;32084;42.254;22.744;2024-03-22T00:32:12;95155.06;;;6.44;60.05
46379;BME280;32084;42.254;22.744;2024-03-22T00:34:38;95160.50;;;6.42;59.55
46379;BME280;32084;42.254;22.744;2024-03-22T00:37:04;95160.69;;;6.20;60.59
46379;BME280;32084;42.254;22.744;2024-03-22T00:39:30;95159.63;;;6.22;60.02
46379;BME280;32084;42.254;22.744;2024-03-22T00:41:56;95167.25;;;6.16;60.95
46379;BME280;32084;42.254;22.744;2024-03-22T00:44:22;95155.06;;;6.03;61.61
46379;BME280;32084;42.254;22.744;2024-03-22T00:46:48;95154.81;;;5.85;61.90
46379;BME280;32084;42.254;22.744;2024-03-22T00:49:14;95154.75;;;5.76;61.94
46379;BME280;32084;42.254;22.744;2024-03-22T00:51:40;95157.94;;;5.70;61.73
46379;BME280;32084;42.254;22.744;2024-03-22T00:54:09;95160.06;;;5.97;62.16
46379;BME280;32084;42.254;22.744;2024-03-22T00:56:35;95158.19;;;6.18;60.23
46379;BME280;32084;42.254;22.744;2024-03-22T00:59:01;95162.19;;;6.43;60.22
46379;BME280;32084;42.254;22.744;2024-03-22T01:01:27;95146.06;;;6.35;60.93
46379;BME280;32084;42.254;22.744;2024-03-22T01:03:53;95148.50;;;6.08;60.99
46379;BME280;32084;42.254;22.744;2024-03-22T01:06:19;95148.63;;;5.54;62.98
46379;BME280;32084;42.254;22.744;2024-03-22T01:08:50;95154.50;;;5.37;63.81
46379;BME280;32084;42.254;22.744;2024-03-22T01:11:17;95147.31;;;5.06;64.88
46379;BME280;32084;42.254;22.744;2024-03-22T01:13:43;95148.38;;;4.83;65.29
46379;BME280;32084;42.254;22.744;2024-03-22T01:16:10;95148.69;;;5.01;64.97
46379;BME280;32084;42.254;22.744;2024-03-22T01:18:36;95154.25;;;5.19;64.78
46379;BME280;32084;42.254;22.744;2024-03-22T01:21:02;95153.66;;;5.15;65.02
46379;BME280;32084;42.254;22.744;2024-03-22T01:23:28;95147.63;;;4.92;65.08
46379;BME280;32084;42.254;22.744;2024-03-22T01:25:54;95156.38;;;5.04;65.14
46379;BME280;32084;42.254;22.744;2024-03-22T01:28:20;95155.47;;;5.15;65.07
46379;BME280;32084;42.254;22.744;2024-03-22T01:30:46;95154.44;;;5.06;65.38
46379;BME280;32084;42.254;22.744;2024-03-22T01:33:12;95156.72;;;5.11;64.71
46379;BME280;32084;42.254;22.744;2024-03-22T01:35:38;95147.31;;;4.74;66.06
46379;BME280;32084;42.254;22.744;2024-03-22T01:38:04;95152.09;;;4.59;66.97
46379;BME280;32084;42.254;22.744;2024-03-22T01:40:30;95150.47;;;4.68;66.78
46379;BME280;32084;42.254;22.744;2024-03-22T01:42:57;95148.22;;;4.96;66.22
46379;BME280;32084;42.254;22.744;2024-03-22T01:45:23;95157.03;;;5.17;65.08
46379;BME280;32084;42.254;22.744;2024-03-22T01:47:51;95157.72;;;5.19;65.74
46379;BME280;32084;42.254;22.744;2024-03-22T01:50:17;95159.22;;;5.12;65.10
46379;BME280;32084;42.254;22.744;2024-03-22T01:52:43;95162.09;;;5.20;65.86
46379;BME280;32084;42.254;22.744;2024-03-22T01:55:10;95163.81;;;5.31;66.07
46379;BME280;32084;42.254;22.744;2024-03-22T01:57:36;95162.13;;;5.09;65.87
46379;BME280;32084;42.254;22.744;2024-03-22T02:00:02;95165.78;;;4.53;67.65
46379;BME280;32084;42.254;22.744;2024-03-22T02:02:28;95163.06;;;4.32;67.94
46379;BME280;32084;42.254;22.744;2024-03-22T02:04:55;95168.13;;;4.46;67.58
46379;BME280;32084;42.254;22.744;2024-03-22T02:07:21;95167.97;;;4.59;67.96
46379;BME280;32084;42.254;22.744;2024-03-22T02:09:48;95168.91;;;4.69;67.35
46379;BME280;32084;42.254;22.744;2024-03-22T02:12:14;95163.44;;;4.82;67.34
46379;BME280;32084;42.254;22.744;2024-03-22T02:14:41;95170.28;;;4.85;67.57
46379;BME280;32084;42.254;22.744;2024-03-22T02:17:07;95175.13;;;4.68;67.21
46379;BME280;32084;42.254;22.744;2024-03-22T02:19:33;95163.84;;;4.55;68.14
46379;BME280;32084;42.254;22.744;2024-03-22T02:21:59;95172.94;;;4.30;68.54
46379;BME280;32084;42.254;22.744;2024-03-22T02:24:25;95165.25;;;4.27;69.43
46379;BME280;32084;42.254;22.744;2024-03-22T02:26:51;95176.69;;;4.05;68.97
46379;BME280;32084;42.254;22.744;2024-03-22T02:29:17;95188.38;;;4.02;69.15
46379;BME280;32084;42.254;22.744;2024-03-22T02:31:43;95188.81;;;3.96;68.85
46379;BME280;32084;42.254;22.744;2024-03-22T02:34:09;95198.19;;;4.00;68.62
46379;BME280;32084;42.254;22.744;2024-03-22T02:36:35;95202.78;;;4.32;67.46
46379;BME280;32084;42.254;22.744;2024-03-22T02:39:01;95201.28;;;4.73;66.21
46379;BME280;32084;42.254;22.744;2024-03-22T02:41:28;95198.84;;;4.81;67.20
46379;BME280;32084;42.254;22.744;2024-03-22T02:43:54;95205.38;;;4.66;67.34
46379;BME280;32084;42.254;22.744;2024-03-22T02:46:20;95204.69;;;4.41;68.70
46379;BME280;32084;42.254;22.744;2024-03-22T02:48:46;95203.00;;;4.52;69.21
46379;BME280;32084;42.254;22.744;2024-03-22T02:51:12;95202.41;;;4.48;68.94
46379;BME280;32084;42.254;22.744;2024-03-22T02:53:38;95206.41;;;4.08;69.18
46379;BME280;32084;42.254;22.744;2024-03-22T02:56:04;95206.84;;;3.68;70.59
46379;BME280;32084;42.254;22.744;2024-03-22T02:58:30;95214.16;;;3.54;71.81
46379;BME280;32084;42.254;22.744;2024-03-22T03:00:56;95222.44;;;3.60;71.74
46379;BME280;32084;42.254;22.744;2024-03-22T03:03:22;95221.53;;;3.37;71.63
46379;BME280;32084;42.254;22.744;2024-03-22T03:05:48;95231.06;;;3.40;71.09
46379;BME280;32084;42.254;22.744;2024-03-22T03:08:14;95238.25;;;3.84;70.54
46379;BME280;32084;42.254;22.744;2024-03-22T03:10:40;95237.44;;;4.06;71.22
46379;BME280;32084;42.254;22.744;2024-03-22T03:13:06;95234.78;;;4.06;71.58
46379;BME280;32084;42.254;22.744;2024-03-22T03:15:32;95241.88;;;4.17;70.63
46379;BME280;32084;42.254;22.744;2024-03-22T03:17:58;95240.00;;;3.61;70.21
46379;BME280;32084;42.254;22.744;2024-03-22T03:20:24;95245.91;;;3.29;71.58
46379;BME280;32084;42.254;22.744;2024-03-22T03:22:51;95249.09;;;3.46;72.12
46379;BME280;32084;42.254;22.744;2024-03-22T03:25:17;95249.88;;;3.70;71.70
46379;BME280;32084;42.254;22.744;2024-03-22T03:27:43;95251.00;;;3.90;71.30
46379;BME280;32084;42.254;22.744;2024-03-22T03:30:09;95249.69;;;4.07;71.52
46379;BME280;32084;42.254;22.744;2024-03-22T03:32:35;95247.88;;;3.85;70.44
46379;BME280;32084;42.254;22.744;2024-03-22T03:35:01;95250.69;;;3.60;71.86
46379;BME280;32084;42.254;22.744;2024-03-22T03:37:28;95251.19;;;3.65;72.13
46379;BME280;32084;42.254;22.744;2024-03-22T03:39:54;95249.78;;;3.72;71.35
46379;BME280;32084;42.254;22.744;2024-03-22T03:42:20;95244.75;;;3.91;72.37
46379;BME280;32084;42.254;22.744;2024-03-22T03:44:46;95247.66;;;4.11;72.18
46379;BME280;32084;42.254;22.744;2024-03-22T03:47:12;95248.72;;;3.97;70.43
46379;BME280;32084;42.254;22.744;2024-03-22T03:49:38;95248.88;;;3.60;71.86
46379;BME280;32084;42.254;22.744;2024-03-22T03:52:04;95241.31;;;3.56;71.84
46379;BME280;32084;42.254;22.744;2024-03-22T03:54:30;95256.25;;;3.79;71.89
46379;BME280;32084;42.254;22.744;2024-03-22T03:56:56;95247.97;;;3.72;71.19
46379;BME280;32084;42.254;22.744;2024-03-22T03:59:22;95254.59;;;3.43;72.22
46379;BME280;32084;42.254;22.744;2024-03-22T04:01:48;95247.69;;;3.53;72.18
46379;BME280;32084;42.254;22.744;2024-03-22T04:04:14;95258.16;;;3.66;71.83
46379;BME280;32084;42.254;22.744;2024-03-22T04:06:40;95255.75;;;3.27;71.87
46379;BME280;32084;42.254;22.744;2024-03-22T04:09:06;95257.81;;;3.35;72.64
46379;BME280;32084;42.254;22.744;2024-03-22T04:11:32;95269.81;;;3.28;72.81
46379;BME280;32084;42.254;22.744;2024-03-22T04:13:58;95265.81;;;3.22;72.45
46379;BME280;32084;42.254;22.744;2024-03-22T04:16:24;95271.38;;;3.30;72.51
46379;BME280;32084;42.254;22.744;2024-03-22T04:18:51;95273.97;;;3.55;71.86
46379;BME280;32084;42.254;22.744;2024-03-22T04:21:17;95279.69;;;3.72;71.74
46379;BME280;32084;42.254;22.744;2024-03-22T04:23:43;95278.47;;;3.65;73.13
46379;BME280;32084;42.254;22.744;2024-03-22T04:26:10;95284.91;;;3.50;73.43
46379;BME280;32084;42.254;22.744;2024-03-22T04:28:36;95284.34;;;3.33;72.31
46379;BME280;32084;42.254;22.744;2024-03-22T04:31:05;95286.78;;;3.37;73.47
46379;BME280;32084;42.254;22.744;2024-03-22T04:33:32;95278.19;;;3.46;73.48
46379;BME280;32084;42.254;22.744;2024-03-22T04:35:58;95287.97;;;3.32;73.40
46379;BME280;32084;42.254;22.744;2024-03-22T04:38:25;95287.97;;;3.08;73.75
46379;BME280;32084;42.254;22.744;2024-03-22T04:40:51;95294.59;;;3.14;74.73
46379;BME280;32084;42.254;22.744;2024-03-22T04:43:17;95298.38;;;3.23;74.13
46379;BME280;32084;42.254;22.744;2024-03-22T04:45:44;95300.78;;;3.26;73.00
46379;BME280;32084;42.254;22.744;2024-03-22T04:48:12;95303.00;;;3.43;73.30
46379;BME280;32084;42.254;22.744;2024-03-22T04:50:38;95302.53;;;3.14;73.34
46379;BME280;32084;42.254;22.744;2024-03-22T04:53:04;95298.09;;;3.39;73.79
46379;BME280;32084;42.254;22.744;2024-03-22T04:55:31;95308.69;;;3.74;72.86
46379;BME280;32084;42.254;22.744;2024-03-22T04:57:58;95298.22;;;3.72;72.72
46379;BME280;32084;42.254;22.744;2024-03-22T05:00:24;95314.03;;;3.97;72.39
46379;BME280;32084;42.254;22.744;2024-03-22T05:02:51;95314.41;;;4.03;71.50
46379;BME280;32084;42.254;22.744;2024-03-22T05:05:17;95320.91;;;4.10;71.30
46379;BME280;32084;42.254;22.744;2024-03-22T05:07:43;95323.59;;;4.33;70.78
46379;BME280;32084;42.254;22.744;2024-03-22T05:10:09;95321.06;;;4.77;69.09
46379;BME280;32084;42.254;22.744;2024-03-22T05:12:36;95324.94;;;4.84;70.71
46379;BME280;32084;42.254;22.744;2024-03-22T05:15:02;95326.00;;;4.81;69.71
46379;BME280;32084;42.254;22.744;2024-03-22T05:17:29;95338.16;;;4.95;70.10
46379;BME280;32084;42.254;22.744;2024-03-22T05:19:58;95331.69;;;5.43;67.69
46379;BME280;32084;42.254;22.744;2024-03-22T05:22:24;95326.22;;;5.88;66.64
46379;BME280;32084;42.254;22.744;2024-03-22T05:24:50;95335.56;;;6.24;65.17
46379;BME280;32084;42.254;22.744;2024-03-22T05:27:17;95332.69;;;6.37;64.51
46379;BME280;32084;42.254;22.744;2024-03-22T05:29:43;95336.22;;;6.69;63.57
46379;BME280;32084;42.254;22.744;2024-03-22T05:32:09;95333.09;;;6.94;61.60
46379;BME280;32084;42.254;22.744;2024-03-22T05:34:35;95332.47;;;7.12;62.59
46379;BME280;32084;42.254;22.744;2024-03-22T05:37:02;95336.22;;;7.09;62.33
46379;BME280;32084;42.254;22.744;2024-03-22T05:39:28;95333.75;;;6.87;63.56
46379;BME280;32084;42.254;22.744;2024-03-22T05:41:54;95339.63;;;6.80;64.07
46379;BME280;32084;42.254;22.744;2024-03-22T05:44:24;95339.69;;;7.00;63.08
46379;BME280;32084;42.254;22.744;2024-03-22T05:46:50;95340.50;;;7.31;61.91
46379;BME280;32084;42.254;22.744;2024-03-22T05:49:16;95340.66;;;7.49;61.99
46379;BME280;32084;42.254;22.744;2024-03-22T05:51:42;95342.94;;;7.93;60.41
46379;BME280;32084;42.254;22.744;2024-03-22T05:54:09;95349.94;;;8.04;59.71
46379;BME280;32084;42.254;22.744;2024-03-22T05:56:36;95345.59;;;7.93;61.68
46379;BME280;32084;42.254;22.744;2024-03-22T05:59:02;95348.41;;;7.72;62.07
46379;BME280;32084;42.254;22.744;2024-03-22T06:01:29;95347.44;;;7.92;61.63
46379;BME280;32084;42.254;22.744;2024-03-22T06:03:55;95348.69;;;8.27;60.84
46379;BME280;32084;42.254;22.744;2024-03-22T06:06:21;95356.25;;;8.51;58.83
46379;BME280;32084;42.254;22.744;2024-03-22T06:08:56;95353.88;;;8.95;57.80
46379;BME280;32084;42.254;22.744;2024-03-22T06:11:26;95354.91;;;8.85;59.25
46379;BME280;32084;42.254;22.744;2024-03-22T06:13:52;95352.75;;;8.98;59.74
46379;BME280;32084;42.254;22.744;2024-03-22T06:16:18;95350.53;;;8.84;59.69
46379;BME280;32084;42.254;22.744;2024-03-22T06:18:44;95355.19;;;8.82;60.92
46379;BME280;32084;42.254;22.744;2024-03-22T06:21:10;95359.53;;;8.83;59.43
46379;BME280;32084;42.254;22.744;2024-03-22T06:23:36;95354.81;;;8.57;58.74
46379;BME280;32084;42.254;22.744;2024-03-22T06:26:03;95356.88;;;8.83;58.54
46379;BME280;32084;42.254;22.744;2024-03-22T06:28:29;95360.38;;;9.21;57.45
46379;BME280;32084;42.254;22.744;2024-03-22T06:30:55;95360.84;;;9.62;55.95
46379;BME280;32084;42.254;22.744;2024-03-22T06:33:21;95367.69;;;9.18;56.71
46379;BME280;32084;42.254;22.744;2024-03-22T06:35:47;95360.53;;;9.47;55.67
46379;BME280;32084;42.254;22.744;2024-03-22T06:38:13;95364.44;;;9.52;55.73
46379;BME280;32084;42.254;22.744;2024-03-22T06:40:39;95360.34;;;9.48;56.03
46379;BME280;32084;42.254;22.744;2024-03-22T06:43:05;95359.78;;;9.72;54.68
46379;BME280;32084;42.254;22.744;2024-03-22T06:45:32;95370.78;;;10.05;53.70
46379;BME280;32084;42.254;22.744;2024-03-22T06:47:58;95361.34;;;9.93;54.33
46379;BME280;32084;42.254;22.744;2024-03-22T06:50:24;95374.69;;;10.11;53.43
46379;BME280;32084;42.254;22.744;2024-03-22T06:52:50;95367.16;;;10.42;53.99
46379;BME280;32084;42.254;22.744;2024-03-22T06:55:17;95368.06;;;11.03;53.39
46379;BME280;32084;42.254;22.744;2024-03-22T06:57:45;95376.38;;;11.26;51.37
46379;BME280;32084;42.254;22.744;2024-03-22T07:00:11;95378.59;;;11.31;51.67
46379;BME280;32084;42.254;22.744;2024-03-22T07:02:39;95369.09;;;11.37;52.21
46379;BME280;32084;42.254;22.744;2024-03-22T07:05:06;95378.28;;;11.85;50.71
46379;BME280;32084;42.254;22.744;2024-03-22T07:07:32;95385.44;;;12.52;50.58
46379;BME280;32084;42.254;22.744;2024-03-22T07:09:58;95385.13;;;12.46;49.83
46379;BME280;32084;42.254;22.744;2024-03-22T07:12:24;95380.41;;;12.40;50.68
46379;BME280;32084;42.254;22.744;2024-03-22T07:14:50;95379.91;;;12.28;50.69
46379;BME280;32084;42.254;22.744;2024-03-22T07:17:17;95377.22;;;12.37;51.07
46379;BME280;32084;42.254;22.744;2024-03-22T07:19:43;95383.09;;;12.57;50.05
46379;BME280;32084;42.254;22.744;2024-03-22T07:22:09;95381.09;;;12.83;50.40
46379;BME280;32084;42.254;22.744;2024-03-22T07:24:35;95391.44;;;13.03;48.99
46379;BME280;32084;42.254;22.744;2024-03-22T07:27:01;95389.25;;;13.06;48.33
46379;BME280;32084;42.254;22.744;2024-03-22T07:29:27;95396.13;;;13.34;48.07
46379;BME280;32084;42.254;22.744;2024-03-22T07:31:54;95393.44;;;13.73;46.44
46379;BME280;32084;42.254;22.744;2024-03-22T07:34:20;95392.38;;;13.91;45.90
46379;BME280;32084;42.254;22.744;2024-03-22T07:36:46;95394.69;;;13.94;45.57
46379;BME280;32084;42.254;22.744;2024-03-22T07:39:12;95394.22;;;14.21;45.61
46379;BME280;32084;42.254;22.744;2024-03-22T07:41:38;95405.13;;;14.97;44.68
46379;BME280;32084;42.254;22.744;2024-03-22T07:44:04;95411.59;;;15.56;41.59
46379;BME280;32084;42.254;22.744;2024-03-22T07:46:30;95418.31;;;15.90;38.05
46379;BME280;32084;42.254;22.744;2024-03-22T07:48:57;95430.75;;;16.64;35.61
46379;BME280;32084;42.254;22.744;2024-03-22T07:51:23;95436.66;;;16.89;35.52
46379;BME280;32084;42.254;22.744;2024-03-22T07:53:50;95445.94;;;17.29;34.17
46379;BME280;32084;42.254;22.744;2024-03-22T07:56:17;95435.53;;;17.26;35.46
46379;BME280;32084;42.254;22.744;2024-03-22T07:58:44;95439.53;;;17.30;33.79
46379;BME280;32084;42.254;22.744;2024-03-22T08:01:11;95452.75;;;16.97;34.00
46379;BME280;32084;42.254;22.744;2024-03-22T08:03:37;95443.13;;;17.16;34.39
46379;BME280;32084;42.254;22.744;2024-03-22T08:06:03;95446.66;;;17.38;33.79
46379;BME280;32084;42.254;22.744;2024-03-22T08:08:29;95458.28;;;17.67;33.35
46379;BME280;32084;42.254;22.744;2024-03-22T08:10:55;95461.13;;;17.87;32.70
46379;BME280;32084;42.254;22.744;2024-03-22T08:13:22;95459.31;;;17.94;32.91
46379;BME280;32084;42.254;22.744;2024-03-22T08:15:48;95457.09;;;17.76;33.89
46379;BME280;32084;42.254;22.744;2024-03-22T08:18:14;95461.63;;;17.97;33.66
46379;BME280;32084;42.254;22.744;2024-03-22T08:20:40;95457.94;;;18.11;32.70
46379;BME280;32084;42.254;22.744;2024-03-22T08:23:06;95455.47;;;18.10;32.88
46379;BME280;32084;42.254;22.744;2024-03-22T08:25:32;95452.91;;;17.73;32.59
46379;BME280;32084;42.254;22.744;2024-03-22T08:27:58;95454.16;;;17.71;32.65
46379;BME280;32084;42.254;22.744;2024-03-22T08:30:25;95449.03;;;18.18;32.36
46379;BME280;32084;42.254;22.744;2024-03-22T08:32:51;95456.84;;;17.99;30.98
46379;BME280;32084;42.254;22.744;2024-03-22T08:35:17;95454.28;;;17.84;32.05
46379;BME280;32084;42.254;22.744;2024-03-22T08:37:43;95458.00;;;18.18;31.93
46379;BME280;32084;42.254;22.744;2024-03-22T08:40:10;95444.19;;;18.06;32.18
46379;BME280;32084;42.254;22.744;2024-03-22T08:42:36;95458.25;;;17.88;31.62
46379;BME280;32084;42.254;22.744;2024-03-22T08:45:02;95452.69;;;17.97;32.69
46379;BME280;32084;42.254;22.744;2024-03-22T08:47:30;95465.84;;;18.06;31.17
46379;BME280;32084;42.254;22.744;2024-03-22T08:49:56;95456.84;;;18.47;30.82
46379;BME280;32084;42.254;22.744;2024-03-22T08:52:23;95454.19;;;18.54;30.96
46379;BME280;32084;42.254;22.744;2024-03-22T08:54:50;95461.00;;;18.43;30.80
46379;BME280;32084;42.254;22.744;2024-03-22T08:57:16;95454.78;;;18.49;30.66
46379;BME280;32084;42.254;22.744;2024-03-22T08:59:42;95452.63;;;18.86;30.33
46379;BME280;32084;42.254;22.744;2024-03-22T09:02:08;95447.84;;;19.02;29.39
46379;BME280;32084;42.254;22.744;2024-03-22T09:04:35;95445.00;;;18.48;31.94
46379;BME280;32084;42.254;22.744;2024-03-22T09:07:01;95454.19;;;18.61;31.01
46379;BME280;32084;42.254;22.744;2024-03-22T09:09:27;95447.03;;;18.33;30.77
46379;BME280;32084;42.254;22.744;2024-03-22T09:11:53;95436.84;;;18.42;30.35
46379;BME280;32084;42.254;22.744;2024-03-22T09:14:19;95445.44;;;18.59;29.79
46379;BME280;32084;42.254;22.744;2024-03-22T09:16:45;95444.78;;;18.02;29.22
46379;BME280;32084;42.254;22.744;2024-03-22T09:19:11;95437.75;;;18.07;30.36
46379;BME280;32084;42.254;22.744;2024-03-22T09:21:37;95436.59;;;18.30;30.12
46379;BME280;32084;42.254;22.744;2024-03-22T09:24:03;95442.47;;;18.40;29.77
46379;BME280;32084;42.254;22.744;2024-03-22T09:26:31;95427.97;;;18.68;30.09
46379;BME280;32084;42.254;22.744;2024-03-22T09:28:58;95429.09;;;18.94;28.74
46379;BME280;32084;42.254;22.744;2024-03-22T09:31:24;95430.31;;;18.91;30.97
46379;BME280;32084;42.254;22.744;2024-03-22T09:33:50;95427.84;;;18.89;29.60
46379;BME280;32084;42.254;22.744;2024-03-22T09:36:17;95426.81;;;19.37;29.53
46379;BME280;32084;42.254;22.744;2024-03-22T09:38:43;95420.16;;;19.26;29.57
46379;BME280;32084;42.254;22.744;2024-03-22T09:41:09;95433.69;;;19.20;29.10
46379;BME280;32084;42.254;22.744;2024-03-22T09:43:35;95417.44;;;19.13;30.90
46379;BME280;32084;42.254;22.744;2024-03-22T09:46:02;95417.66;;;19.18;30.17
46379;BME280;32084;42.254;22.744;2024-03-22T09:48:28;95420.34;;;18.91;29.72
46379;BME280;32084;42.254;22.744;2024-03-22T09:50:55;95414.31;;;19.23;30.41
46379;BME280;32084;42.254;22.744;2024-03-22T09:53:21;95414.09;;;19.31;30.54
46379;BME280;32084;42.254;22.744;2024-03-22T09:55:48;95408.19;;;18.67;29.90
46379;BME280;32084;42.254;22.744;2024-03-22T09:58:15;95405.69;;;18.04;30.76
46379;BME280;32084;42.254;22.744;2024-03-22T10:00:43;95416.59;;;18.24;30.65
46379;BME280;32084;42.254;22.744;2024-03-22T10:03:09;95410.22;;;18.52;29.86
46379;BME280;32084;42.254;22.744;2024-03-22T10:05:36;95399.94;;;18.27;29.08
46379;BME280;32084;42.254;22.744;2024-03-22T10:08:03;95393.75;;;17.92;30.45
46379;BME280;32084;42.254;22.744;2024-03-22T10:10:30;95388.25;;;18.20;30.84
46379;BME280;32084;42.254;22.744;2024-03-22T10:12:56;95391.59;;;18.84;31.31
46379;BME280;32084;42.254;22.744;2024-03-22T10:15:23;95400.69;;;18.76;30.31
46379;BME280;32084;42.254;22.744;2024-03-22T10:17:49;95401.31;;;18.71;29.22
46379;BME280;32084;42.254;22.744;2024-03-22T10:20:15;95393.38;;;18.63;29.03
46379;BME280;32084;42.254;22.744;2024-03-22T10:23:02;95395.56;;;18.20;29.57
46379;BME280;32084;42.254;22.744;2024-03-22T10:25:28;95390.63;;;17.88;30.14
46379;BME280;32084;42.254;22.744;2024-03-22T10:27:55;95381.69;;;17.94;29.70
46379;BME280;32084;42.254;22.744;2024-03-22T10:30:21;95377.66;;;18.25;30.11
46379;BME280;32084;42.254;22.744;2024-03-22T10:32:51;95381.72;;;18.76;30.35
46379;BME280;32084;42.254;22.744;2024-03-22T10:35:17;95373.66;;;19.16;30.31
46379;BME280;32084;42.254;22.744;2024-03-22T10:37:44;95370.75;;;18.98;30.72
46379;BME280;32084;42.254;22.744;2024-03-22T10:40:10;95377.28;;;17.87;30.33
46379;BME280;32084;42.254;22.744;2024-03-22T10:42:38;95375.06;;;18.04;30.53
46379;BME280;32084;42.254;22.744;2024-03-22T10:45:05;95370.97;;;18.14;29.65
46379;BME280;32084;42.254;22.744;2024-03-22T10:47:32;95361.91;;;18.42;30.08
46379;BME280;32084;42.254;22.744;2024-03-22T10:50:05;95367.09;;;18.57;29.24
46379;BME280;32084;42.254;22.744;2024-03-22T10:52:33;95370.44;;;18.46;28.05
46379;BME280;32084;42.254;22.744;2024-03-22T10:55:00;95365.78;;;18.20;29.09
46379;BME280;32084;42.254;22.744;2024-03-22T10:57:28;95355.47;;;18.63;30.05
46379;BME280;32084;42.254;22.744;2024-03-22T10:59:55;95365.63;;;18.34;29.26
46379;BME280;32084;42.254;22.744;2024-03-22T11:02:23;95361.06;;;18.48;30.09
46379;BME280;32084;42.254;22.744;2024-03-22T11:04:58;95349.22;;;18.69;28.74
46379;BME280;32084;42.254;22.744;2024-03-22T11:07:30;95347.94;;;18.45;29.25
46379;BME280;32084;42.254;22.744;2024-03-22T11:09:57;95353.16;;;18.47;27.24
46379;BME280;32084;42.254;22.744;2024-03-22T11:12:24;95348.94;;;18.18;26.80
46379;BME280;32084;42.254;22.744;2024-03-22T11:14:52;95336.25;;;18.31;27.97
46379;BME280;32084;42.254;22.744;2024-03-22T11:17:18;95334.97;;;18.21;27.86
46379;BME280;32084;42.254;22.744;2024-03-22T11:19:44;95333.88;;;18.02;27.91
46379;BME280;32084;42.254;22.744;2024-03-22T11:22:10;95333.72;;;18.17;28.57
46379;BME280;32084;42.254;22.744;2024-03-22T11:24:37;95329.22;;;18.50;28.25
46379;BME280;32084;42.254;22.744;2024-03-22T11:27:04;95334.09;;;18.13;27.36
46379;BME280;32084;42.254;22.744;2024-03-22T11:29:30;95339.56;;;18.20;26.49
46379;BME280;32084;42.254;22.744;2024-03-22T11:31:56;95333.88;;;18.02;27.68
46379;BME280;32084;42.254;22.744;2024-03-22T11:34:22;95336.53;;;17.88;27.19
46379;BME280;32084;42.254;22.744;2024-03-22T11:36:48;95334.25;;;17.92;26.95
46379;BME280;32084;42.254;22.744;2024-03-22T11:39:15;95332.66;;;18.11;26.56
46379;BME280;32084;42.254;22.744;2024-03-22T11:41:41;95340.91;;;17.96;25.21
46379;BME280;32084;42.254;22.744;2024-03-22T11:44:07;95341.41;;;17.71;25.64
46379;BME280;32084;42.254;22.744;2024-03-22T11:46:34;95333.09;;;17.66;25.67
46379;BME280;32084;42.254;22.744;2024-03-22T11:49:00;95331.66;;;17.77;27.01
46379;BME280;32084;42.254;22.744;2024-03-22T11:51:26;95324.31;;;17.99;27.02
46379;BME280;32084;42.254;22.744;2024-03-22T11:53:52;95334.78;;;17.81;25.93
46379;BME280;32084;42.254;22.744;2024-03-22T11:56:22;95320.25;;;17.82;27.23
46379;BME280;32084;42.254;22.744;2024-03-22T11:58:48;95319.41;;;17.81;26.39
46379;BME280;32084;42.254;22.744;2024-03-22T12:01:14;95324.25;;;17.51;26.93
46379;BME280;32084;42.254;22.744;2024-03-22T12:03:44;95322.53;;;17.36;27.96
46379;BME280;32084;42.254;22.744;2024-03-22T12:06:10;95321.44;;;16.96;26.08
46379;BME280;32084;42.254;22.744;2024-03-22T12:08:37;95308.13;;;17.29;27.35
46379;BME280;32084;42.254;22.744;2024-03-22T12:11:09;95309.19;;;17.35;27.67
46379;BME280;32084;42.254;22.744;2024-03-22T12:13:35;95305.56;;;17.49;27.91
46379;BME280;32084;42.254;22.744;2024-03-22T12:16:03;95301.38;;;17.47;28.59
46379;BME280;32084;42.254;22.744;2024-03-22T12:18:29;95301.41;;;17.53;28.13
46379;BME280;32084;42.254;22.744;2024-03-22T12:20:56;95298.47;;;17.48;27.70
46379;BME280;32084;42.254;22.744;2024-03-22T12:23:22;95291.91;;;17.64;27.75
46379;BME280;32084;42.254;22.744;2024-03-22T12:25:49;95288.75;;;17.61;27.48
46379;BME280;32084;42.254;22.744;2024-03-22T12:28:16;95282.34;;;17.68;26.86
46379;BME280;32084;42.254;22.744;2024-03-22T12:30:42;95287.25;;;17.51;27.74
46379;BME280;32084;42.254;22.744;2024-03-22T12:33:08;95270.69;;;17.68;28.89
46379;BME280;32084;42.254;22.744;2024-03-22T12:35:36;95267.56;;;17.64;27.90
46379;BME280;32084;42.254;22.744;2024-03-22T12:38:03;95276.94;;;17.27;26.97
46379;BME280;32084;42.254;22.744;2024-03-22T12:40:29;95276.00;;;17.06;27.33
46379;BME280;32084;42.254;22.744;2024-03-22T12:42:56;95275.09;;;16.92;27.70
46379;BME280;32084;42.254;22.744;2024-03-22T12:45:22;95264.63;;;17.17;28.58
46379;BME280;32084;42.254;22.744;2024-03-22T12:47:48;95264.19;;;17.14;28.07
46379;BME280;32084;42.254;22.744;2024-03-22T12:50:14;95266.59;;;17.37;27.51